Sevenisland Tomo — JM5778 — position and weather

sailwx.info

Track history (hours):
 
Tides and Currents Weather Stations Pressure Air Temp Water Temp Dewpoint Dewpoint Depression Visibility Wind Speed Wind Dir Waves Ship Positions

Sevenisland Tomo

Last reported at 2017-Oct-09 23:49 UTC. Time now 2017-Oct-17 16:47 UTC.
Position N 35°20' E 139°50'.

Length 27 m; draft 5.4 m.

MMSI: 431009153.

Date/timePositionNaut miles runAvg speedWind from/ knotsBaromVisibWave heightAir tempDewpointWater temp
2017-Oct-09 23:49N 35°20' E 139°50'412.0
2017-Oct-09 23:30N 35°22' E 139°47'1428.8
2017-Oct-09 23:00N 35°37' E 139°46'11 0.7
2017-Oct-09 07:41N 35°26' E 139°47'843.1
2017-Oct-09 07:31N 35°19' E 139°45'1937.5
2017-Oct-09 07:01N 35°01' E 139°39'7 4.2
2017-Oct-09 05:21N 34°55' E 139°33'1441.7
2017-Oct-09 05:01N 35°07' E 139°43'19 8.7
2017-Oct-09 02:46N 35°26' E 139°48'1038.2
2017-Oct-09 02:30N 35°16' E 139°47'1836.5
2017-Oct-09 02:01N 34°60' E 139°37'8 5.7
2017-Oct-09 00:35N 34°54' E 139°30'340.0
2017-Oct-09 00:30N 34°56' E 139°33'2143.0
2017-Oct-09 00:00N 35°14' E 139°47'25 1.5
2017-Oct-08 07:18N 35°38' E 139°45'1 2.8
2017-Oct-08 06:52N 35°39' E 139°46'1335.8
2017-Oct-08 06:30N 35°27' E 139°47'1939.0
2017-Oct-08 06:00N 35°07' E 139°45'13 2.2
2017-Oct-07 23:51N 34°57' E 139°34'1338.3
2017-Oct-07 23:31N 35°07' E 139°45'2039.7
2017-Oct-07 23:00N 35°27' E 139°48'1322.7
2017-Oct-07 22:27N 35°39' E 139°46'1 2.5
2017-Oct-07 22:00N 35°38' E 139°46'1 0.1
2017-Oct-07 08:11N 35°39' E 139°46'940.4
2017-Oct-07 07:57N 35°31' E 139°50'1839.8
2017-Oct-07 07:30N 35°13' E 139°44'816.1
2017-Oct-07 07:00N 35°06' E 139°41'12 2.1
2017-Oct-07 01:21N 34°57' E 139°32'1440.1
2017-Oct-07 01:00N 35°07' E 139°43'612.5
2017-Oct-07 00:31N 35°13' E 139°43'1530.2
2017-Oct-07 00:01N 35°28' E 139°48'1215.1
2017-Oct-06 23:14N 35°39' E 139°46'1 4.9
2017-Oct-06 23:00N 35°38' E 139°46'0 0.0
2017-Oct-06 02:35N 35°38' E 139°46'331.2
2017-Oct-06 02:29N 35°35' E 139°48'1532.3
2017-Oct-06 02:00N 35°20' E 139°50'0 0.0
2017-Oct-06 01:30N 35°20' E 139°50'0 0.5
2017-Oct-06 01:00N 35°20' E 139°50'0 0.0
2017-Oct-06 00:30N 35°20' E 139°50'0 0.0
2017-Oct-04 07:30N 35°20' E 139°50'0 0.0
2017-Oct-04 07:00N 35°20' E 139°50'  
Track history (hours):
 
Tides and Currents Weather Stations Pressure Air Temp Water Temp Dewpoint Dewpoint Depression Visibility Wind Speed Wind Dir Waves Ship Positions

Sevenisland Tomo

Last reported at 2017-Oct-09 23:49 UTC. Time now 2017-Oct-17 16:47 UTC.
Position N 35°20' E 139°50'.

Length 27 m; draft 5.4 m.

MMSI: 431009153.

Date/timePositionNaut miles runAvg speedWind from/ knotsBaromVisibWave heightAir tempDewpointWater temp
2017-Oct-09 23:49N 35°20' E 139°50'412.0
2017-Oct-09 23:30N 35°22' E 139°47'1428.8
2017-Oct-09 23:00N 35°37' E 139°46'11 0.7
2017-Oct-09 07:41N 35°26' E 139°47'843.1
2017-Oct-09 07:31N 35°19' E 139°45'1937.5
2017-Oct-09 07:01N 35°01' E 139°39'7 4.2
2017-Oct-09 05:21N 34°55' E 139°33'1441.7
2017-Oct-09 05:01N 35°07' E 139°43'19 8.7
2017-Oct-09 02:46N 35°26' E 139°48'1038.2
2017-Oct-09 02:30N 35°16' E 139°47'1836.5
2017-Oct-09 02:01N 34°60' E 139°37'8 5.7
2017-Oct-09 00:35N 34°54' E 139°30'340.0
2017-Oct-09 00:30N 34°56' E 139°33'2143.0
2017-Oct-09 00:00N 35°14' E 139°47'25 1.5
2017-Oct-08 07:18N 35°38' E 139°45'1 2.8
2017-Oct-08 06:52N 35°39' E 139°46'1335.8
2017-Oct-08 06:30N 35°27' E 139°47'1939.0
2017-Oct-08 06:00N 35°07' E 139°45'13 2.2
2017-Oct-07 23:51N 34°57' E 139°34'1338.3
2017-Oct-07 23:31N 35°07' E 139°45'2039.7
2017-Oct-07 23:00N 35°27' E 139°48'1322.7
2017-Oct-07 22:27N 35°39' E 139°46'1 2.5
2017-Oct-07 22:00N 35°38' E 139°46'1 0.1
2017-Oct-07 08:11N 35°39' E 139°46'940.4
2017-Oct-07 07:57N 35°31' E 139°50'1839.8
2017-Oct-07 07:30N 35°13' E 139°44'816.1
2017-Oct-07 07:00N 35°06' E 139°41'12 2.1
2017-Oct-07 01:21N 34°57' E 139°32'1440.1
2017-Oct-07 01:00N 35°07' E 139°43'612.5
2017-Oct-07 00:31N 35°13' E 139°43'1530.2
2017-Oct-07 00:01N 35°28' E 139°48'1215.1
2017-Oct-06 23:14N 35°39' E 139°46'1 4.9
2017-Oct-06 23:00N 35°38' E 139°46'0 0.0
2017-Oct-06 02:35N 35°38' E 139°46'331.2
2017-Oct-06 02:29N 35°35' E 139°48'1532.3
2017-Oct-06 02:00N 35°20' E 139°50'0 0.0
2017-Oct-06 01:30N 35°20' E 139°50'0 0.5
2017-Oct-06 01:00N 35°20' E 139°50'0 0.0
2017-Oct-06 00:30N 35°20' E 139°50'0 0.0
2017-Oct-04 07:30N 35°20' E 139°50'0 0.0
2017-Oct-04 07:00N 35°20' E 139°50'  

Dump ship's entire track history